CDT,Max TemperatureF,Mean TemperatureF,Min TemperatureF,Max Dew PointF,MeanDew PointF,Min DewpointF,Max Humidity, Mean Humidity, Min Humidity, Max Sea Level PressureIn, Mean Sea Level PressureIn, Min Sea Level PressureIn, Max VisibilityMiles, Mean VisibilityMiles, Min VisibilityMiles, Max Wind SpeedMPH, Mean Wind SpeedMPH, Max Gust SpeedMPH,PrecipitationIn, CloudCover, Events, WindDirDegrees
2013-3-1,35,28,21,26,22,16,85,73,61,30.40,30.32,30.26,10,10,8,23,12,26,0.00,5,,341
2013-3-2,38,27,16,25,20,13,84,72,59,30.42,30.32,30.15,10,10,9,14,6,15,0.00,0,,193
2013-3-3,48,39,29,35,30,24,78,67,56,30.12,29.85,29.64,10,10,8,15,8,18,0.00,0,,160
2013-3-4,47,38,29,36,31,14,92,77,62,30.21,29.83,29.62,10,10,6,27,13,35,0.03,5,Rain-Snow,338
2013-3-5,44,34,23,20,18,14,69,53,36,30.43,30.32,30.18,10,10,9,36,18,41,0.00,0,Snow,324
2013-3-6,47,34,21,24,20,15,77,57,37,30.48,30.35,30.19,10,10,10,20,8,22,0.00,0,,118
2013-3-7,65,48,31,30,27,23,78,52,26,30.19,30.09,30.01,10,10,9,23,13,29,0.00,0,,138
2013-3-8,66,53,39,47,39,29,77,62,47,30.06,29.97,29.84,10,10,9,28,15,35,0.00,3,,151
2013-3-9,64,52,40,55,49,35,93,80,66,29.82,29.66,29.52,10,8,3,28,19,37,0.34,7,Rain-Thunderstorm,181
2013-3-10,40,34,27,34,25,19,92,81,69,30.09,29.92,29.66,10,5,0,38,23,45,0.03,8,Fog-Snow,338
2013-3-11,44,31,18,31,19,12,77,58,38,30.08,30.03,29.94,10,10,10,17,9,20,0.00,1,,283
2013-3-12,50,39,28,31,24,17,76,53,29,30.40,30.26,30.07,10,10,10,29,12,38,0.00,2,,323
2013-3-13,56,40,23,31,24,18,88,59,30,30.48,30.37,30.22,10,10,10,18,9,23,0.00,1,,157
2013-3-14,77,59,41,43,35,29,73,47,21,30.21,30.13,30.07,10,10,10,14,8,23,0.00,0,,194
2013-3-15,87,63,38,42,38,33,85,50,15,30.05,29.82,29.65,10,10,10,22,8,28,0.00,0,,211
2013-3-16,54,44,34,42,31,26,76,63,49,30.08,29.98,29.76,10,9,7,26,16,32,0.00,1,,26
2013-3-17,42,37,31,34,29,25,85,75,65,30.06,29.91,29.72,10,9,4,16,9,20,T,7,Rain,81
2013-3-18,58,47,35,36,26,17,92,57,21,30.07,29.93,29.81,10,8,5,29,11,39,0.00,3,,336
2013-3-19,49,37,25,30,24,17,82,62,42,30.31,30.20,30.09,10,10,10,13,5,16,0.00,3,,119
2013-3-20,46,35,24,33,19,14,82,55,28,30.48,30.31,30.06,10,10,10,17,7,21,0.00,2,,11
2013-3-21,50,41,32,27,18,12,75,50,24,30.02,29.88,29.77,10,10,10,29,17,37,T,3,,105
2013-3-22,47,39,30,31,28,26,85,69,53,30.01,29.96,29.90,10,8,4,15,6,18,T,7,Snow,57
2013-3-23,35,32,29,30,29,27,89,82,75,30.04,29.97,29.91,10,4,1,25,15,33,0.04,8,Snow,37
2013-3-24,38,31,24,27,23,15,92,72,52,30.22,30.09,30.01,10,5,0,32,22,39,0.01,5,Fog-Snow,335
2013-3-25,37,30,22,18,17,16,74,59,44,30.43,30.32,30.21,10,10,9,29,16,33,T,4,Snow,319
2013-3-26,46,31,15,26,19,12,88,66,43,30.46,30.36,30.22,10,10,10,17,7,22,0.00,0,,164
2013-3-27,59,47,34,33,27,23,69,51,33,30.22,30.16,30.09,10,10,10,21,9,26,T,2,,128
2013-3-28,67,48,29,38,32,25,85,57,28,30.20,30.16,30.08,10,10,8,13,6,21,0.00,0,,66
2013-3-29,74,58,41,50,44,35,79,59,38,30.17,30.10,30.01,10,10,6,20,9,28,0.00,1,,118
2013-3-30,74,62,49,56,51,42,93,69,44,30.01,29.94,29.87,10,9,2,24,9,29,0.22,5,Rain-Thunderstorm,323
2013-3-31,66,55,43,47,37,26,93,59,24,30.06,30.01,29.94,10,10,7,17,8,23,T,1,Rain,314